createdAt,value
2023-02-04T00:00:43.510Z,5.19
2023-02-04T00:01:43.502Z,5.12
2023-02-04T00:02:43.519Z,5.19
2023-02-04T00:03:43.478Z,5.12
2023-02-04T00:04:43.471Z,5.20
2023-02-04T00:05:43.502Z,5.11
2023-02-04T00:06:43.467Z,5.09
2023-02-04T00:07:43.447Z,5.06
2023-02-04T00:08:43.428Z,5.14
2023-02-04T00:09:43.424Z,5.12
2023-02-04T00:10:43.412Z,5.09
2023-02-04T00:11:43.414Z,5.12
2023-02-04T00:12:43.402Z,5.19
2023-02-04T00:13:43.392Z,5.04
2023-02-04T00:14:43.380Z,5.05
2023-02-04T00:15:43.404Z,5.05
2023-02-04T00:16:43.372Z,5.01
2023-02-04T00:17:43.355Z,5.15
2023-02-04T00:18:43.340Z,5.14
2023-02-04T00:19:43.336Z,5.15
2023-02-04T00:20:43.321Z,5.14
2023-02-04T00:21:43.319Z,5.24
2023-02-04T00:22:43.315Z,5.22
2023-02-04T00:23:43.296Z,5.22
2023-02-04T00:24:43.286Z,5.12
2023-02-04T00:25:43.288Z,5.15
2023-02-04T00:26:43.280Z,5.12
2023-02-04T00:27:43.310Z,5.15
2023-02-04T00:28:43.250Z,5.20
2023-02-04T00:29:43.241Z,5.26
2023-02-04T00:30:43.228Z,5.23
2023-02-04T00:31:43.266Z,5.20
2023-02-04T00:32:43.217Z,5.22
2023-02-04T00:33:43.209Z,5.11
2023-02-04T00:34:43.196Z,5.15
2023-02-04T00:35:43.185Z,5.24
2023-02-04T00:36:43.190Z,5.22
2023-02-04T00:37:43.194Z,5.27
2023-02-04T00:38:43.163Z,5.19
2023-02-04T00:39:43.155Z,5.08
2023-02-04T00:40:43.143Z,5.09
2023-02-04T00:41:43.137Z,5.06
2023-02-04T00:42:44.125Z,5.01
2023-02-04T00:43:43.122Z,5.11
2023-02-04T00:44:43.104Z,5.01
2023-02-04T00:45:43.174Z,4.97
2023-02-04T00:46:43.100Z,4.96
2023-02-04T00:47:43.080Z,5.04
2023-02-04T00:48:43.074Z,4.88
2023-02-04T00:49:44.066Z,4.97
2023-02-04T00:50:43.057Z,4.91
2023-02-04T00:51:43.054Z,4.96
2023-02-04T00:52:43.033Z,4.96
2023-02-04T00:53:43.022Z,4.93
2023-02-04T00:54:43.012Z,4.83
2023-02-04T00:55:43.004Z,4.80
2023-02-04T00:56:43.009Z,4.75
2023-02-04T00:57:43.031Z,4.79
2023-02-04T00:58:42.982Z,4.72
2023-02-04T00:59:42.973Z,4.74
2023-02-04T01:00:42.970Z,4.65
2023-02-04T01:01:42.966Z,4.74
2023-02-04T01:02:43.005Z,4.61
2023-02-04T01:03:42.936Z,4.49
2023-02-04T01:04:42.933Z,4.49
2023-02-04T01:05:42.923Z,4.36
2023-02-04T01:06:42.971Z,4.35
2023-02-04T01:07:43.023Z,4.39
2023-02-04T01:08:42.900Z,4.39
2023-02-04T01:09:42.894Z,4.36
2023-02-04T01:10:42.876Z,4.42
2023-02-04T01:11:42.877Z,4.38
2023-02-04T01:12:42.861Z,4.44
2023-02-04T01:13:42.857Z,4.46
2023-02-04T01:14:42.841Z,4.49
2023-02-04T01:15:42.834Z,4.51
2023-02-04T01:16:42.877Z,4.39
2023-02-04T01:17:42.831Z,4.35
2023-02-04T01:18:42.808Z,4.28
2023-02-04T01:19:42.801Z,4.21
2023-02-04T01:20:42.788Z,4.35
2023-02-04T01:21:42.796Z,4.36
2023-02-04T01:22:42.774Z,4.31
2023-02-04T01:23:42.762Z,4.36
2023-02-04T01:24:42.761Z,4.34
2023-02-04T01:25:42.747Z,4.28
2023-02-04T01:26:42.752Z,4.36
2023-02-04T01:27:42.752Z,4.47
2023-02-04T01:28:42.730Z,4.35
2023-02-04T01:29:42.714Z,4.36
2023-02-04T01:30:42.736Z,4.39
2023-02-04T01:31:42.753Z,4.39
2023-02-04T01:32:42.685Z,4.43
2023-02-04T01:33:42.676Z,4.39
2023-02-04T01:34:42.669Z,4.42
2023-02-04T01:35:42.664Z,4.54
2023-02-04T01:36:42.671Z,4.49
2023-02-04T01:37:42.644Z,4.56
2023-02-04T01:38:42.634Z,4.43
2023-02-04T01:39:42.625Z,4.31
2023-02-04T01:40:42.617Z,4.32
2023-02-04T01:41:42.614Z,4.32
2023-02-04T01:42:42.597Z,4.34
2023-02-04T01:43:42.584Z,4.34
2023-02-04T01:44:42.579Z,4.46
2023-02-04T01:45:42.583Z,4.38
2023-02-04T01:46:42.583Z,4.36
2023-02-04T01:47:42.556Z,4.36
2023-02-04T01:48:42.547Z,4.34
2023-02-04T01:49:42.546Z,4.35
2023-02-04T01:50:42.528Z,4.42
2023-02-04T01:51:42.528Z,4.42
2023-02-04T01:52:42.513Z,4.29
2023-02-04T01:53:42.498Z,4.28
2023-02-04T01:54:42.494Z,4.20
2023-02-04T01:55:42.493Z,4.17
2023-02-04T01:56:42.486Z,4.24
2023-02-04T01:57:42.467Z,4.26
2023-02-04T01:58:42.455Z,4.34
2023-02-04T01:59:42.457Z,4.38
2023-02-04T02:00:42.438Z,4.31
2023-02-04T02:01:42.441Z,4.34
2023-02-04T02:02:42.496Z,4.35
2023-02-04T02:03:42.419Z,4.35
2023-02-04T02:04:42.405Z,4.32
2023-02-04T02:05:42.397Z,4.28
2023-02-04T02:06:42.396Z,4.28
2023-02-04T02:07:42.395Z,4.31
2023-02-04T02:08:42.379Z,4.31
2023-02-04T02:09:42.365Z,4.42
2023-02-04T02:10:42.358Z,4.36
2023-02-04T02:11:42.364Z,4.34
2023-02-04T02:12:42.335Z,4.39
2023-02-04T02:13:42.317Z,4.39
2023-02-04T02:14:43.318Z,4.46
2023-02-04T02:15:42.308Z,4.42
2023-02-04T02:16:42.376Z,4.32
2023-02-04T02:17:42.291Z,4.38
2023-02-04T02:18:42.281Z,4.42
2023-02-04T02:19:42.268Z,4.53
2023-02-04T02:20:42.261Z,4.49
2023-02-04T02:21:42.264Z,4.49
2023-02-04T02:22:42.257Z,4.56
2023-02-04T02:23:42.236Z,4.57
2023-02-04T02:24:42.228Z,4.59
2023-02-04T02:25:42.219Z,4.54
2023-02-04T02:26:42.209Z,4.51
2023-02-04T02:27:42.265Z,4.54
2023-02-04T02:28:42.195Z,4.51
2023-02-04T02:29:42.186Z,4.59
2023-02-04T02:30:42.233Z,4.61
2023-02-04T02:31:42.280Z,4.57
2023-02-04T02:32:42.155Z,4.59
2023-02-04T02:33:42.150Z,4.64
2023-02-04T02:34:42.145Z,4.64
2023-02-04T02:35:42.137Z,4.79
2023-02-04T02:36:42.123Z,4.67
2023-02-04T02:37:42.127Z,4.62
2023-02-04T02:38:42.112Z,4.72
2023-02-04T02:39:42.094Z,4.71
2023-02-04T02:40:42.089Z,4.65
2023-02-04T02:41:42.079Z,4.54
2023-02-04T02:42:42.081Z,4.68
2023-02-04T02:43:42.058Z,4.64
2023-02-04T02:44:42.048Z,4.57
2023-02-04T02:45:42.125Z,4.59
2023-02-04T02:46:42.047Z,4.62
2023-02-04T02:47:42.035Z,4.67
2023-02-04T02:48:42.014Z,4.59
2023-02-04T02:49:42.031Z,4.64
2023-02-04T02:50:41.997Z,4.65
2023-02-04T02:51:41.998Z,4.65
2023-02-04T02:52:41.996Z,4.65
2023-02-04T02:53:41.963Z,4.59
2023-02-04T02:54:41.962Z,4.65
2023-02-04T02:55:41.951Z,4.62
2023-02-04T02:56:41.939Z,4.62
2023-02-04T02:57:41.935Z,4.62
2023-02-04T02:58:41.919Z,4.64
2023-02-04T02:59:41.908Z,4.57
2023-02-04T03:00:41.906Z,4.54
2023-02-04T03:01:41.886Z,4.53
2023-02-04T03:02:41.973Z,4.62
2023-02-04T03:03:41.897Z,4.68
2023-02-04T03:04:41.858Z,4.62
2023-02-04T03:05:41.856Z,4.62
2023-02-04T03:06:41.836Z,4.59
2023-02-04T03:07:41.854Z,4.64
2023-02-04T03:08:41.822Z,4.54
2023-02-04T03:09:41.824Z,4.57
2023-02-04T03:10:41.805Z,4.56
2023-02-04T03:11:41.797Z,4.62
2023-02-04T03:12:41.803Z,4.57
2023-02-04T03:13:41.777Z,4.61
2023-02-04T03:14:41.769Z,4.57
2023-02-04T03:15:41.792Z,4.49
2023-02-04T03:16:41.751Z,4.59
2023-02-04T03:17:41.750Z,4.61
2023-02-04T03:18:41.732Z,4.56
2023-02-04T03:19:41.723Z,4.64
2023-02-04T03:20:41.716Z,4.67
2023-02-04T03:21:41.707Z,4.61
2023-02-04T03:22:41.712Z,4.72
2023-02-04T03:23:41.700Z,4.59
2023-02-04T03:24:41.682Z,4.64
2023-02-04T03:25:41.680Z,4.67
2023-02-04T03:26:41.666Z,4.74
2023-02-04T03:27:41.687Z,4.69
2023-02-04T03:28:41.648Z,4.74
2023-02-04T03:29:41.642Z,4.68
2023-02-04T03:30:41.717Z,4.61
2023-02-04T03:31:41.720Z,4.65
2023-02-04T03:32:41.654Z,4.59
2023-02-04T03:33:41.605Z,4.65
2023-02-04T03:34:41.596Z,4.61
2023-02-04T03:35:41.583Z,4.57
2023-02-04T03:36:41.573Z,4.56
2023-02-04T03:37:41.577Z,4.56
2023-02-04T03:38:41.561Z,4.54
2023-02-04T03:39:41.545Z,4.61
2023-02-04T03:40:41.537Z,4.64
2023-02-04T03:41:41.529Z,4.64
2023-02-04T03:42:41.535Z,4.64
2023-02-04T03:43:41.514Z,4.59
2023-02-04T03:44:41.509Z,4.67
2023-02-04T03:45:45.735Z,4.59
2023-02-04T03:46:42.487Z,4.69
2023-02-04T03:47:41.494Z,4.67
2023-02-04T03:48:41.472Z,4.50
2023-02-04T03:49:41.459Z,4.54
2023-02-04T03:50:41.475Z,4.62
2023-02-04T03:51:41.453Z,4.53
2023-02-04T03:52:41.452Z,4.50
2023-02-04T03:53:41.445Z,4.53
2023-02-04T03:54:41.435Z,4.54
2023-02-04T03:55:41.418Z,4.51
2023-02-04T03:56:41.404Z,4.46
2023-02-04T03:57:41.420Z,4.43
2023-02-04T03:58:41.388Z,4.46
2023-02-04T03:59:41.379Z,4.43
2023-02-04T04:00:41.368Z,4.36
2023-02-04T04:01:41.489Z,4.43
2023-02-04T04:02:41.397Z,4.28
2023-02-04T04:03:41.348Z,4.31
2023-02-04T04:04:41.343Z,4.26
2023-02-04T04:05:41.323Z,4.20
2023-02-04T04:06:41.315Z,4.24
2023-02-04T04:07:41.319Z,4.10
2023-02-04T04:08:41.341Z,4.17
2023-02-04T04:09:41.289Z,4.20
2023-02-04T04:10:42.055Z,4.16
2023-02-04T04:11:42.274Z,4.14
2023-02-04T04:12:41.286Z,4.11
2023-02-04T04:13:41.261Z,4.26
2023-02-04T04:14:41.243Z,4.17
2023-02-04T04:15:41.291Z,4.10
2023-02-04T04:16:41.233Z,4.17
2023-02-04T04:17:41.233Z,4.21
2023-02-04T04:18:41.211Z,4.18
2023-02-04T04:19:41.205Z,4.11
2023-02-04T04:20:41.210Z,4.29
2023-02-04T04:21:41.199Z,4.29
2023-02-04T04:22:41.191Z,4.29
2023-02-04T04:23:41.174Z,4.25
2023-02-04T04:24:41.156Z,4.29
2023-02-04T04:25:41.151Z,4.39
2023-02-04T04:26:41.141Z,4.47
2023-02-04T04:27:41.180Z,4.32
2023-02-04T04:28:41.120Z,4.35
2023-02-04T04:29:41.112Z,4.35
2023-02-04T04:30:41.114Z,4.29
2023-02-04T04:31:41.175Z,4.29
2023-02-04T04:32:41.094Z,4.42
2023-02-04T04:33:41.076Z,4.39
2023-02-04T04:34:41.065Z,4.32
2023-02-04T04:35:41.056Z,4.31
2023-02-04T04:36:41.055Z,4.34
2023-02-04T04:37:41.055Z,4.32
2023-02-04T04:38:41.065Z,4.34
2023-02-04T04:39:41.029Z,4.51
2023-02-04T04:40:41.010Z,4.29
2023-02-04T04:41:41.002Z,4.32
2023-02-04T04:42:41.005Z,4.29
2023-02-04T04:43:40.984Z,4.21
2023-02-04T04:44:40.973Z,4.29
2023-02-04T04:45:40.962Z,4.29
2023-02-04T04:46:40.993Z,4.28
2023-02-04T04:47:40.961Z,4.28
2023-02-04T04:48:40.938Z,4.31
2023-02-04T04:49:40.927Z,4.36
2023-02-04T04:50:40.922Z,4.39
2023-02-04T04:51:40.913Z,4.54
2023-02-04T04:52:40.910Z,4.50
2023-02-04T04:53:40.901Z,4.53
2023-02-04T04:54:40.933Z,4.54
2023-02-04T04:55:40.913Z,4.57
2023-02-04T04:56:40.867Z,4.57
2023-02-04T04:57:40.865Z,4.53
2023-02-04T04:58:40.849Z,4.46
2023-02-04T04:59:40.831Z,4.36
2023-02-04T05:00:40.878Z,4.38
2023-02-04T05:01:40.829Z,4.39
2023-02-04T05:02:40.830Z,4.38
2023-02-04T05:03:40.812Z,4.31
2023-02-04T05:04:40.822Z,4.26
2023-02-04T05:05:40.810Z,4.32
2023-02-04T05:06:40.822Z,4.32
2023-02-04T05:07:40.786Z,4.21
2023-02-04T05:08:40.769Z,4.11
2023-02-04T05:09:40.761Z,4.18
2023-02-04T05:10:40.747Z,4.25
2023-02-04T05:11:40.743Z,4.17
2023-02-04T05:12:40.743Z,4.26
2023-02-04T05:13:40.722Z,4.25
2023-02-04T05:14:40.729Z,4.29
2023-02-04T05:15:40.719Z,4.10
2023-02-04T05:16:40.747Z,4.25
2023-02-04T05:17:40.705Z,4.21
2023-02-04T05:18:40.682Z,4.17
2023-02-04T05:19:40.682Z,4.17
2023-02-04T05:20:40.691Z,4.14
2023-02-04T05:21:40.660Z,4.07
2023-02-04T05:22:40.658Z,4.21
2023-02-04T05:23:40.632Z,4.17
2023-02-04T05:24:40.633Z,4.14
2023-02-04T05:25:40.619Z,4.13
2023-02-04T05:26:40.607Z,4.17
2023-02-04T05:27:40.623Z,3.90
2023-02-04T05:28:40.602Z,3.95
2023-02-04T05:29:40.587Z,3.90
2023-02-04T05:30:40.616Z,3.92
2023-02-04T05:31:40.647Z,3.86
2023-02-04T05:32:40.555Z,3.95
2023-02-04T05:33:40.558Z,3.95
2023-02-04T05:34:40.544Z,3.98
2023-02-04T05:35:40.536Z,3.92
2023-02-04T05:36:40.522Z,3.90
2023-02-04T05:37:40.518Z,3.82
2023-02-04T05:38:40.513Z,3.74
2023-02-04T05:39:40.501Z,3.78
2023-02-04T05:40:40.484Z,3.89
2023-02-04T05:41:40.487Z,3.88
2023-02-04T05:42:40.469Z,3.98
2023-02-04T05:43:40.486Z,4.14
2023-02-04T05:44:40.453Z,4.06
2023-02-04T05:45:40.518Z,4.07
2023-02-04T05:46:40.443Z,4.06
2023-02-04T05:48:06.345Z,4.07
2023-02-04T05:48:40.462Z,3.98
2023-02-04T05:49:40.408Z,4.04
2023-02-04T05:50:40.398Z,4.11
2023-02-04T05:51:40.402Z,4.08
2023-02-04T05:52:40.430Z,4.16
2023-02-04T05:53:40.403Z,4.13
2023-02-04T05:54:40.365Z,4.13
2023-02-04T05:55:40.363Z,4.18
2023-02-04T05:56:40.344Z,4.18
2023-02-04T05:57:40.338Z,4.14
2023-02-04T05:58:40.355Z,4.18
2023-02-04T05:59:40.325Z,4.21
2023-02-04T06:00:40.316Z,4.02
2023-02-04T06:01:40.300Z,3.75
2023-02-04T06:02:40.296Z,3.80
2023-02-04T06:03:40.449Z,3.81
2023-02-04T06:04:40.313Z,3.92
2023-02-04T06:05:40.265Z,3.86
2023-02-04T06:06:40.258Z,3.70
2023-02-04T06:07:40.250Z,3.54
2023-02-04T06:08:40.253Z,3.56
2023-02-04T06:09:40.229Z,3.37
2023-02-04T06:10:40.234Z,3.15
2023-02-04T06:11:40.220Z,3.12
2023-02-04T06:12:40.204Z,2.97
2023-02-04T06:13:40.208Z,2.89
2023-02-04T06:14:40.194Z,2.83
2023-02-04T06:15:40.182Z,2.71
2023-02-04T06:16:40.328Z,2.76
2023-02-04T06:17:40.160Z,2.73
2023-02-04T06:18:40.164Z,2.80
2023-02-04T06:19:40.143Z,2.69
2023-02-04T06:20:40.139Z,2.69
2023-02-04T06:21:40.127Z,2.51
2023-02-04T06:22:40.123Z,2.51
2023-02-04T06:23:40.121Z,2.41
2023-02-04T06:24:40.104Z,2.36
2023-02-04T06:25:40.094Z,2.41
2023-02-04T06:26:40.084Z,2.55
2023-02-04T06:27:40.134Z,2.38
2023-02-04T06:28:40.081Z,2.33
2023-02-04T06:29:40.064Z,2.43
2023-02-04T06:30:40.064Z,2.38
2023-02-04T06:31:40.158Z,2.30
2023-02-04T06:32:40.033Z,2.18
2023-02-04T06:33:40.043Z,2.29
2023-02-04T06:34:40.022Z,2.22
2023-02-04T06:35:40.015Z,2.38
2023-02-04T06:36:39.999Z,2.40
2023-02-04T06:37:39.991Z,2.33
2023-02-04T06:38:39.985Z,2.44
2023-02-04T06:39:39.965Z,2.33
2023-02-04T06:40:39.962Z,2.37
2023-02-04T06:41:39.950Z,2.36
2023-02-04T06:42:39.945Z,2.23
2023-02-04T06:43:39.932Z,2.33
2023-02-04T06:44:40.921Z,2.19
2023-02-04T06:45:39.929Z,2.15
2023-02-04T06:46:39.904Z,2.19
2023-02-04T06:47:39.894Z,2.18
2023-02-04T06:48:39.897Z,2.08
2023-02-04T06:49:39.883Z,2.07
2023-02-04T06:50:39.871Z,2.09
2023-02-04T06:51:39.875Z,2.04
2023-02-04T06:52:39.854Z,2.09
2023-02-04T06:53:39.853Z,2.00
2023-02-04T06:54:39.837Z,2.01
2023-02-04T06:55:39.823Z,2.04
2023-02-04T06:56:39.821Z,2.07
2023-02-04T06:57:39.797Z,2.00
2023-02-04T06:58:39.808Z,1.95
2023-02-04T06:59:39.792Z,2.04
2023-02-04T07:00:39.777Z,2.09
2023-02-04T07:01:39.801Z,2.05
2023-02-04T07:02:39.989Z,2.14
2023-02-04T07:03:39.757Z,2.02
2023-02-04T07:04:39.759Z,2.07
2023-02-04T07:05:39.726Z,2.04
2023-02-04T07:06:39.740Z,2.18
2023-02-04T07:07:39.710Z,2.07
2023-02-04T07:08:39.716Z,2.02
2023-02-04T07:09:39.699Z,2.01
2023-02-04T07:10:39.685Z,2.01
2023-02-04T07:11:39.676Z,2.04
2023-02-04T07:12:39.666Z,2.02
2023-02-04T07:13:39.667Z,2.02
2023-02-04T07:14:39.641Z,2.11
2023-02-04T07:15:40.761Z,2.01
2023-02-04T07:16:39.638Z,2.07
2023-02-04T07:17:39.627Z,1.98
2023-02-04T07:18:39.627Z,2.14
2023-02-04T07:19:39.604Z,1.98
2023-02-04T07:20:39.597Z,2.15
2023-02-04T07:21:39.582Z,2.05
2023-02-04T07:22:39.576Z,2.05
2023-02-04T07:23:39.581Z,2.07
2023-02-04T07:24:39.567Z,2.19
2023-02-04T07:25:39.549Z,2.14
2023-02-04T07:26:39.535Z,2.18
2023-02-04T07:27:39.566Z,2.14
2023-02-04T07:28:39.545Z,2.26
2023-02-04T07:29:39.508Z,2.32
2023-02-04T07:30:39.625Z,2.37
2023-02-04T07:31:39.556Z,2.38
2023-02-04T07:32:39.488Z,2.47
2023-02-04T07:33:39.494Z,2.36
2023-02-04T07:34:39.467Z,2.43
2023-02-04T07:35:39.457Z,2.53
2023-02-04T07:36:39.477Z,2.45
2023-02-04T07:37:39.434Z,2.59
2023-02-04T07:38:39.435Z,2.63
2023-02-04T07:39:39.420Z,2.63
2023-02-04T07:40:39.401Z,2.76
2023-02-04T07:41:39.402Z,2.73
2023-02-04T07:42:39.381Z,2.76
2023-02-04T07:43:39.385Z,2.76
2023-02-04T07:44:39.372Z,2.84
2023-02-04T07:45:39.353Z,2.79
2023-02-04T07:46:40.421Z,2.69
2023-02-04T07:47:39.335Z,2.73
2023-02-04T07:48:39.341Z,2.87
2023-02-04T07:49:39.324Z,2.83
2023-02-04T07:50:39.307Z,2.80
2023-02-04T07:51:39.302Z,2.73
2023-02-04T07:52:39.285Z,2.68
2023-02-04T07:53:39.282Z,2.69
2023-02-04T07:54:40.277Z,2.79
2023-02-04T07:55:39.279Z,2.81
2023-02-04T07:56:39.253Z,2.79
2023-02-04T07:57:39.238Z,2.90
2023-02-04T07:58:39.241Z,2.90
2023-02-04T07:59:39.222Z,2.95
2023-02-04T08:00:39.224Z,2.81
2023-02-04T08:01:39.258Z,2.81
2023-02-04T08:02:39.240Z,2.76
2023-02-04T08:03:41.507Z,2.81
2023-02-04T08:04:39.175Z,2.89
2023-02-04T08:05:39.173Z,2.94
2023-02-04T08:06:39.162Z,3.13
2023-02-04T08:07:39.153Z,3.13
2023-02-04T08:08:39.158Z,3.26
2023-02-04T08:09:39.130Z,3.25
2023-02-04T08:10:39.118Z,3.25
2023-02-04T08:11:39.108Z,3.42
2023-02-04T08:12:39.105Z,3.50
2023-02-04T08:13:39.111Z,3.49
2023-02-04T08:14:39.086Z,3.52
2023-02-04T08:15:39.111Z,3.50
2023-02-04T08:16:39.068Z,3.68
2023-02-04T08:17:39.053Z,3.71
2023-02-04T08:18:39.063Z,3.59
2023-02-04T08:19:39.042Z,3.57
2023-02-04T08:20:39.027Z,3.70
2023-02-04T08:21:39.019Z,3.63
2023-02-04T08:22:39.016Z,3.78
2023-02-04T08:23:39.014Z,3.74
2023-02-04T08:24:38.997Z,3.88
2023-02-04T08:25:38.987Z,3.81
2023-02-04T08:26:38.974Z,3.64
2023-02-04T08:27:38.962Z,3.68
2023-02-04T08:28:38.979Z,3.60
2023-02-04T08:29:38.946Z,3.72
2023-02-04T08:30:38.948Z,3.56
2023-02-04T08:31:39.011Z,3.60
2023-02-04T08:32:38.920Z,3.41
2023-02-04T08:33:38.907Z,3.52
2023-02-04T08:34:38.906Z,3.53
2023-02-04T08:35:38.895Z,3.30
2023-02-04T08:36:38.880Z,2.99
2023-02-04T08:37:38.872Z,3.07
2023-02-04T08:38:38.867Z,3.02
2023-02-04T08:39:38.863Z,3.10
2023-02-04T08:40:38.843Z,3.16
2023-02-04T08:41:38.831Z,3.25
2023-02-04T08:42:38.826Z,3.37
2023-02-04T08:43:38.817Z,3.42
2023-02-04T08:44:38.825Z,3.49
2023-02-04T08:45:38.810Z,3.42
2023-02-04T08:46:38.869Z,3.52
2023-02-04T08:47:38.788Z,3.33
2023-02-04T08:48:38.785Z,3.33
2023-02-04T08:49:38.796Z,3.49
2023-02-04T08:50:39.197Z,3.52
2023-02-04T08:51:39.761Z,3.50
2023-02-04T08:52:38.754Z,3.54
2023-02-04T08:53:38.748Z,3.71
2023-02-04T08:54:38.749Z,3.74
2023-02-04T08:55:38.729Z,3.80
2023-02-04T08:56:38.726Z,3.64
2023-02-04T08:57:38.718Z,3.71
2023-02-04T08:58:38.710Z,3.71
2023-02-04T08:59:38.712Z,3.75
2023-02-04T09:00:38.726Z,3.74
2023-02-04T09:01:38.741Z,3.63
2023-02-04T09:02:38.678Z,3.64
2023-02-04T09:03:38.670Z,3.56
2023-02-04T09:04:38.684Z,3.56
2023-02-04T09:05:38.649Z,3.71
2023-02-04T09:06:38.645Z,3.74
2023-02-04T09:07:38.662Z,3.75
2023-02-04T09:08:38.629Z,3.89
2023-02-04T09:09:38.650Z,3.81
2023-02-04T09:10:38.615Z,3.82
2023-02-04T09:11:38.611Z,4.08
2023-02-04T09:12:38.597Z,4.47
2023-02-04T09:13:38.589Z,4.39
2023-02-04T09:14:38.631Z,4.36
2023-02-04T09:15:38.575Z,3.99
2023-02-04T09:16:38.640Z,3.70
2023-02-04T09:17:38.557Z,3.46
2023-02-04T09:18:38.550Z,3.57
2023-02-04T09:19:38.547Z,3.72
2023-02-04T09:20:38.525Z,3.74
2023-02-04T09:21:38.520Z,3.75
2023-02-04T09:22:38.511Z,3.84
2023-02-04T09:23:38.501Z,4.32
2023-02-04T09:24:38.514Z,4.65
2023-02-04T09:25:38.484Z,5.41
2023-02-04T09:26:38.485Z,5.77
2023-02-04T09:27:38.482Z,5.93
2023-02-04T09:28:38.461Z,6.61
2023-02-04T09:29:38.487Z,7.29
2023-02-04T09:30:38.472Z,8.06
2023-02-04T09:31:38.508Z,8.65
2023-02-04T09:32:38.426Z,7.76
2023-02-04T09:33:38.427Z,7.07
2023-02-04T09:34:38.416Z,7.41
2023-02-04T09:35:38.396Z,7.07
2023-02-04T09:36:38.385Z,7.15
2023-02-04T09:37:38.380Z,6.50
2023-02-04T09:38:38.360Z,6.38
2023-02-04T09:39:38.368Z,5.74
2023-02-04T09:40:38.346Z,5.12
2023-02-04T09:41:39.876Z,4.94
2023-02-04T09:42:39.327Z,4.54
2023-02-04T09:43:38.314Z,4.24
2023-02-04T09:44:38.314Z,3.99
2023-02-04T09:45:38.324Z,3.93
2023-02-04T09:46:38.280Z,3.88
2023-02-04T09:47:38.276Z,3.93
2023-02-04T09:48:38.260Z,3.95
2023-02-04T09:49:38.265Z,4.06
2023-02-04T09:50:38.244Z,4.16
2023-02-04T09:51:38.227Z,4.17
2023-02-04T09:52:38.220Z,4.25
2023-02-04T09:53:38.212Z,4.20
2023-02-04T09:54:38.207Z,4.14
2023-02-04T09:55:38.186Z,4.16
2023-02-04T09:56:38.174Z,4.00
2023-02-04T09:57:38.158Z,3.89
2023-02-04T09:58:38.151Z,3.88
2023-02-04T09:59:38.150Z,3.98
2023-02-04T10:00:38.138Z,3.88
2023-02-04T10:01:38.122Z,3.74
2023-02-04T10:02:38.115Z,3.64
2023-02-04T10:03:38.116Z,3.60
2023-02-04T10:04:38.105Z,3.60
2023-02-04T10:05:38.078Z,3.62
2023-02-04T10:06:38.067Z,3.75
2023-02-04T10:07:38.057Z,3.72
2023-02-04T10:08:38.044Z,3.75
2023-02-04T10:09:38.048Z,3.62
2023-02-04T10:10:38.026Z,3.53
2023-02-04T10:11:38.022Z,3.52
2023-02-04T10:12:38.009Z,3.54
2023-02-04T10:13:38.002Z,3.52
2023-02-04T10:14:38.005Z,3.57
2023-02-04T10:15:37.996Z,3.57
2023-02-04T10:16:38.163Z,3.63
2023-02-04T10:17:37.973Z,3.72
2023-02-04T10:18:37.968Z,3.84
2023-02-04T10:19:37.956Z,3.70
2023-02-04T10:20:37.942Z,3.74
2023-02-04T10:21:37.929Z,3.68
2023-02-04T10:22:37.924Z,3.82
2023-02-04T10:23:37.908Z,3.75
2023-02-04T10:24:37.909Z,3.67
2023-02-04T10:25:37.887Z,3.84
2023-02-04T10:26:37.884Z,3.68
2023-02-04T10:27:37.872Z,3.67
2023-02-04T10:28:37.865Z,3.71
2023-02-04T10:29:37.872Z,3.70
2023-02-04T10:30:38.030Z,3.67
2023-02-04T10:31:38.170Z,3.86
2023-02-04T10:32:37.832Z,3.90
2023-02-04T10:33:37.820Z,3.98
2023-02-04T10:34:37.888Z,4.14
2023-02-04T10:35:37.811Z,4.13
2023-02-04T10:36:37.793Z,3.98
2023-02-04T10:37:37.792Z,4.14
2023-02-04T10:38:37.782Z,4.04
2023-02-04T10:39:37.786Z,3.92
2023-02-04T10:40:37.767Z,3.81
2023-02-04T10:41:37.756Z,4.04
2023-02-04T10:42:37.747Z,4.04
2023-02-04T10:43:37.743Z,4.11
2023-02-04T10:44:37.748Z,4.00
2023-02-04T10:45:37.718Z,4.10
2023-02-04T10:46:37.710Z,4.08
2023-02-04T10:47:37.701Z,4.00
2023-02-04T10:48:37.692Z,3.90
2023-02-04T10:49:37.711Z,3.99
2023-02-04T10:50:37.674Z,3.99
2023-02-04T10:51:37.676Z,4.17
2023-02-04T10:52:37.661Z,4.25
2023-02-04T10:53:37.647Z,4.34
2023-02-04T10:54:37.651Z,4.29
2023-02-04T10:55:37.634Z,4.32
2023-02-04T10:56:37.626Z,4.35
2023-02-04T10:57:37.615Z,4.35
2023-02-04T10:58:37.603Z,4.57
2023-02-04T10:59:37.610Z,4.62
2023-02-04T11:00:37.588Z,4.77
2023-02-04T11:01:37.608Z,4.90
2023-02-04T11:02:37.567Z,5.08
2023-02-04T11:03:37.617Z,5.02
2023-02-04T11:04:37.569Z,5.11
2023-02-04T11:05:37.552Z,5.17
2023-02-04T11:06:37.537Z,5.09
2023-02-04T11:07:37.523Z,4.64
2023-02-04T11:08:37.521Z,4.32
2023-02-04T11:09:37.519Z,4.18
2023-02-04T11:10:37.494Z,4.25
2023-02-04T11:11:37.493Z,4.17
2023-02-04T11:12:37.476Z,4.21
2023-02-04T11:13:37.471Z,4.34
2023-02-04T11:14:37.473Z,4.47
2023-02-04T11:15:37.487Z,4.50
2023-02-04T11:16:37.446Z,4.77
2023-02-04T11:17:37.435Z,4.88
2023-02-04T11:18:37.425Z,4.94
2023-02-04T11:19:37.442Z,4.91
2023-02-04T11:20:37.421Z,4.87
2023-02-04T11:21:37.400Z,4.65
2023-02-04T11:22:37.396Z,4.57
2023-02-04T11:23:37.386Z,4.50
2023-02-04T11:24:37.384Z,4.44
2023-02-04T11:25:37.362Z,4.35
2023-02-04T11:26:37.363Z,4.54
2023-02-04T11:27:37.355Z,4.54
2023-02-04T11:28:37.338Z,4.54
2023-02-04T11:29:37.340Z,4.56
2023-02-04T11:30:37.387Z,4.53
2023-02-04T11:31:37.406Z,4.53
2023-02-04T11:32:37.302Z,4.53
2023-02-04T11:33:37.303Z,4.51
2023-02-04T11:34:37.297Z,4.64
2023-02-04T11:35:37.288Z,4.64
2023-02-04T11:36:37.261Z,4.96
2023-02-04T11:37:37.269Z,4.90
2023-02-04T11:38:37.247Z,4.88
2023-02-04T11:39:37.293Z,4.91
2023-02-04T11:40:37.246Z,4.79
2023-02-04T11:41:37.219Z,4.65
2023-02-04T11:42:37.206Z,4.53
2023-02-04T11:43:37.198Z,4.65
2023-02-04T11:44:37.204Z,4.46
2023-02-04T11:45:37.181Z,4.42
2023-02-04T11:46:37.176Z,4.39
2023-02-04T11:47:37.168Z,4.50
2023-02-04T11:48:40.000Z,4.56
2023-02-04T11:49:37.150Z,4.62
2023-02-04T11:50:37.151Z,4.71
2023-02-04T11:51:37.127Z,4.93
2023-02-04T11:52:37.122Z,4.97
2023-02-04T11:53:37.109Z,5.05
2023-02-04T11:54:37.124Z,5.14
2023-02-04T11:55:37.110Z,5.32
2023-02-04T11:56:37.079Z,5.37
2023-02-04T11:57:37.081Z,5.51
2023-02-04T11:58:37.070Z,5.62
2023-02-04T11:59:37.057Z,5.63
2023-02-04T12:00:37.062Z,5.80
2023-02-04T12:01:37.029Z,5.70
2023-02-04T12:02:38.039Z,5.45
2023-02-04T12:03:37.043Z,5.15
2023-02-04T12:04:37.014Z,5.04
2023-02-04T12:05:37.016Z,4.90
2023-02-04T12:06:36.999Z,4.86
2023-02-04T12:07:36.982Z,4.69
2023-02-04T12:08:36.978Z,4.74
2023-02-04T12:09:36.967Z,4.79
2023-02-04T12:10:36.979Z,4.88
2023-02-04T12:11:36.949Z,4.79
2023-02-04T12:12:36.939Z,4.53
2023-02-04T12:13:36.937Z,4.36
2023-02-04T12:14:36.964Z,4.43
2023-02-04T12:15:36.999Z,4.44
2023-02-04T12:16:36.919Z,4.49
2023-02-04T12:17:36.902Z,4.53
2023-02-04T12:18:36.880Z,4.46
2023-02-04T12:19:36.878Z,4.39
2023-02-04T12:20:36.882Z,4.32
2023-02-04T12:21:36.859Z,4.29
2023-02-04T12:22:36.848Z,4.25
2023-02-04T12:23:36.836Z,4.31
2023-02-04T12:24:36.825Z,4.34
2023-02-04T12:25:36.844Z,4.35
2023-02-04T12:26:36.815Z,4.39
2023-02-04T12:27:36.809Z,4.26
2023-02-04T12:28:36.807Z,4.31
2023-02-04T12:29:36.786Z,4.34
2023-02-04T12:30:36.790Z,4.26
2023-02-04T12:31:36.924Z,4.34
2023-02-04T12:32:36.761Z,4.43
2023-02-04T12:33:36.757Z,4.51
2023-02-04T12:34:36.742Z,4.34
2023-02-04T12:35:36.745Z,4.31
2023-02-04T12:36:36.722Z,4.25
2023-02-04T12:37:36.716Z,4.24
2023-02-04T12:38:36.716Z,4.26
2023-02-04T12:39:36.696Z,4.36
2023-02-04T12:40:36.707Z,4.56
2023-02-04T12:41:36.685Z,4.59
2023-02-04T12:42:36.675Z,4.69
2023-02-04T12:43:36.663Z,4.86
2023-02-04T12:44:36.651Z,4.65
2023-02-04T12:45:36.659Z,4.65
2023-02-04T12:46:36.699Z,4.56
2023-02-04T12:47:36.630Z,4.64
2023-02-04T12:48:36.670Z,4.56
2023-02-04T12:49:36.613Z,4.59
2023-02-04T12:50:36.610Z,4.64
2023-02-04T12:51:36.599Z,4.64
2023-02-04T12:52:36.581Z,4.69
2023-02-04T12:53:36.576Z,4.72
2023-02-04T12:54:36.563Z,4.54
2023-02-04T12:55:36.601Z,4.59
2023-02-04T12:56:36.544Z,4.53
2023-02-04T12:57:36.538Z,4.53
2023-02-04T12:58:36.537Z,4.59
2023-02-04T12:59:36.522Z,4.50
2023-02-04T13:00:36.588Z,4.57
2023-02-04T13:01:36.516Z,4.65
2023-02-04T13:02:36.497Z,4.67
2023-02-04T13:03:36.498Z,4.77
2023-02-04T13:04:36.499Z,4.88
2023-02-04T13:05:36.486Z,5.11
2023-02-04T13:06:36.472Z,5.12
2023-02-04T13:07:36.455Z,5.20
2023-02-04T13:08:36.445Z,5.22
2023-02-04T13:09:36.435Z,5.22
2023-02-04T13:10:36.440Z,5.05
2023-02-04T13:11:36.436Z,5.11
2023-02-04T13:12:36.419Z,5.14
2023-02-04T13:13:36.407Z,4.93
2023-02-04T13:14:36.403Z,4.97
2023-02-04T13:15:36.412Z,5.04
2023-02-04T13:16:36.431Z,5.12
2023-02-04T13:17:36.377Z,5.05
2023-02-04T13:18:36.359Z,4.91